sensor_id;sensor_type;location;lat;lon;timestamp;temperature;humidity
71837;DHT22;59686;51.716;7.016;2023-04-03T00:00:15;11.80;71.00
71837;DHT22;59686;51.716;7.016;2023-04-03T00:02:41;11.80;71.00
71837;DHT22;59686;51.716;7.016;2023-04-03T00:05:07;11.80;71.20
71837;DHT22;59686;51.716;7.016;2023-04-03T00:07:33;11.80;71.10
71837;DHT22;59686;51.716;7.016;2023-04-03T00:09:58;11.80;71.00
71837;DHT22;59686;51.716;7.016;2023-04-03T00:12:24;11.80;71.90
71837;DHT22;59686;51.716;7.016;2023-04-03T00:14:50;11.70;71.10
71837;DHT22;59686;51.716;7.016;2023-04-03T00:17:15;11.80;71.20
71837;DHT22;59686;51.716;7.016;2023-04-03T00:19:41;11.70;71.10
71837;DHT22;59686;51.716;7.016;2023-04-03T00:22:07;11.70;71.10
71837;DHT22;59686;51.716;7.016;2023-04-03T00:24:32;11.70;71.20
71837;DHT22;59686;51.716;7.016;2023-04-03T00:26:58;11.70;71.20
71837;DHT22;59686;51.716;7.016;2023-04-03T00:29:23;11.70;71.30
71837;DHT22;59686;51.716;7.016;2023-04-03T00:31:49;11.60;71.30
71837;DHT22;59686;51.716;7.016;2023-04-03T00:34:15;11.80;71.50
71837;DHT22;59686;51.716;7.016;2023-04-03T00:36:41;11.60;71.50
71837;DHT22;59686;51.716;7.016;2023-04-03T00:39:06;11.60;71.50
71837;DHT22;59686;51.716;7.016;2023-04-03T00:41:32;11.60;71.60
71837;DHT22;59686;51.716;7.016;2023-04-03T00:43:58;11.70;71.70
71837;DHT22;59686;51.716;7.016;2023-04-03T00:46:23;11.60;71.60
71837;DHT22;59686;51.716;7.016;2023-04-03T00:48:49;11.60;71.70
71837;DHT22;59686;51.716;7.016;2023-04-03T00:51:22;11.60;71.70
71837;DHT22;59686;51.716;7.016;2023-04-03T00:53:50;11.60;71.40
71837;DHT22;59686;51.716;7.016;2023-04-03T00:56:19;11.60;71.70
71837;DHT22;59686;51.716;7.016;2023-04-03T00:58:52;11.70;71.80
71837;DHT22;59686;51.716;7.016;2023-04-03T01:01:22;11.70;71.80
71837;DHT22;59686;51.716;7.016;2023-04-03T01:03:49;11.60;71.70
71837;DHT22;59686;51.716;7.016;2023-04-03T01:06:16;11.50;71.70
71837;DHT22;59686;51.716;7.016;2023-04-03T01:08:44;11.60;71.60
71837;DHT22;59686;51.716;7.016;2023-04-03T01:11:10;11.50;71.50
71837;DHT22;59686;51.716;7.016;2023-04-03T01:13:35;11.50;71.50
71837;DHT22;59686;51.716;7.016;2023-04-03T01:16:04;11.50;71.70
71837;DHT22;59686;51.716;7.016;2023-04-03T01:18:30;11.50;71.70
71837;DHT22;59686;51.716;7.016;2023-04-03T01:21:13;11.30;71.60
71837;DHT22;59686;51.716;7.016;2023-04-03T01:24:24;11.40;71.60
71837;DHT22;59686;51.716;7.016;2023-04-03T01:26:52;11.50;71.50
71837;DHT22;59686;51.716;7.016;2023-04-03T01:32:40;11.40;71.30
71837;DHT22;59686;51.716;7.016;2023-04-03T01:35:08;11.40;71.30
71837;DHT22;59686;51.716;7.016;2023-04-03T01:37:34;11.40;71.30
71837;DHT22;59686;51.716;7.016;2023-04-03T01:40:08;11.40;71.40
71837;DHT22;59686;51.716;7.016;2023-04-03T01:42:34;11.40;71.40
71837;DHT22;59686;51.716;7.016;2023-04-03T01:44:59;11.40;71.40
71837;DHT22;59686;51.716;7.016;2023-04-03T01:47:25;11.30;71.20
71837;DHT22;59686;51.716;7.016;2023-04-03T01:49:51;11.30;71.30
71837;DHT22;59686;51.716;7.016;2023-04-03T01:52:16;11.30;71.30
71837;DHT22;59686;51.716;7.016;2023-04-03T01:54:42;11.20;71.30
71837;DHT22;59686;51.716;7.016;2023-04-03T01:57:08;11.30;71.30
71837;DHT22;59686;51.716;7.016;2023-04-03T01:59:34;11.20;71.30
71837;DHT22;59686;51.716;7.016;2023-04-03T02:01:59;11.30;71.30
71837;DHT22;59686;51.716;7.016;2023-04-03T02:04:25;11.20;71.20
71837;DHT22;59686;51.716;7.016;2023-04-03T02:06:51;11.20;71.30
71837;DHT22;59686;51.716;7.016;2023-04-03T02:09:18;11.20;71.30
71837;DHT22;59686;51.716;7.016;2023-04-03T02:11:44;11.30;71.30
71837;DHT22;59686;51.716;7.016;2023-04-03T02:14:10;11.20;71.20
71837;DHT22;59686;51.716;7.016;2023-04-03T02:16:35;11.10;71.20
71837;DHT22;59686;51.716;7.016;2023-04-03T02:19:01;11.20;71.30
71837;DHT22;59686;51.716;7.016;2023-04-03T02:21:27;11.10;71.10
71837;DHT22;59686;51.716;7.016;2023-04-03T02:24:06;11.20;71.00
71837;DHT22;59686;51.716;7.016;2023-04-03T02:26:32;11.20;71.00
71837;DHT22;59686;51.716;7.016;2023-04-03T02:28:58;11.10;71.00
71837;DHT22;59686;51.716;7.016;2023-04-03T02:31:23;11.10;71.10
71837;DHT22;59686;51.716;7.016;2023-04-03T02:33:49;11.10;70.90
71837;DHT22;59686;51.716;7.016;2023-04-03T02:36:16;11.10;70.80
71837;DHT22;59686;51.716;7.016;2023-04-03T02:38:41;11.10;70.80
71837;DHT22;59686;51.716;7.016;2023-04-03T02:41:10;11.20;71.10
71837;DHT22;59686;51.716;7.016;2023-04-03T02:43:36;11.20;71.10
71837;DHT22;59686;51.716;7.016;2023-04-03T02:46:02;11.10;71.10
71837;DHT22;59686;51.716;7.016;2023-04-03T02:48:28;11.00;71.00
71837;DHT22;59686;51.716;7.016;2023-04-03T02:50:54;11.00;70.90
71837;DHT22;59686;51.716;7.016;2023-04-03T02:53:20;11.00;70.80
71837;DHT22;59686;51.716;7.016;2023-04-03T02:55:46;11.00;70.80
71837;DHT22;59686;51.716;7.016;2023-04-03T02:58:12;11.00;70.90
71837;DHT22;59686;51.716;7.016;2023-04-03T03:00:38;11.00;71.00
71837;DHT22;59686;51.716;7.016;2023-04-03T03:03:04;10.90;70.90
71837;DHT22;59686;51.716;7.016;2023-04-03T03:05:30;10.90;70.90
71837;DHT22;59686;51.716;7.016;2023-04-03T03:07:56;11.00;70.70
71837;DHT22;59686;51.716;7.016;2023-04-03T03:10:28;10.90;70.60
71837;DHT22;59686;51.716;7.016;2023-04-03T03:12:54;10.90;70.60
71837;DHT22;59686;51.716;7.016;2023-04-03T03:15:20;10.90;70.50
71837;DHT22;59686;51.716;7.016;2023-04-03T03:17:45;10.80;70.40
71837;DHT22;59686;51.716;7.016;2023-04-03T03:20:12;10.90;70.60
71837;DHT22;59686;51.716;7.016;2023-04-03T03:22:40;10.80;70.70
71837;DHT22;59686;51.716;7.016;2023-04-03T03:25:07;11.00;70.90
71837;DHT22;59686;51.716;7.016;2023-04-03T03:27:32;10.90;70.60
71837;DHT22;59686;51.716;7.016;2023-04-03T03:29:58;10.80;70.50
71837;DHT22;59686;51.716;7.016;2023-04-03T03:32:24;10.80;70.50
71837;DHT22;59686;51.716;7.016;2023-04-03T03:34:49;10.80;70.30
71837;DHT22;59686;51.716;7.016;2023-04-03T03:37:15;10.80;70.40
71837;DHT22;59686;51.716;7.016;2023-04-03T03:39:41;10.80;70.40
71837;DHT22;59686;51.716;7.016;2023-04-03T03:42:06;10.80;70.30
71837;DHT22;59686;51.716;7.016;2023-04-03T03:44:32;10.70;70.40
71837;DHT22;59686;51.716;7.016;2023-04-03T03:46:58;10.80;70.50
71837;DHT22;59686;51.716;7.016;2023-04-03T03:49:23;10.70;70.40
71837;DHT22;59686;51.716;7.016;2023-04-03T03:51:49;10.80;70.40
71837;DHT22;59686;51.716;7.016;2023-04-03T03:54:16;10.70;70.40
71837;DHT22;59686;51.716;7.016;2023-04-03T03:56:41;10.80;70.40
71837;DHT22;59686;51.716;7.016;2023-04-03T03:59:07;10.70;70.30
71837;DHT22;59686;51.716;7.016;2023-04-03T04:01:33;10.70;70.20
71837;DHT22;59686;51.716;7.016;2023-04-03T04:03:59;10.70;70.30
71837;DHT22;59686;51.716;7.016;2023-04-03T04:06:30;10.70;70.40
71837;DHT22;59686;51.716;7.016;2023-04-03T04:08:56;10.70;70.30
71837;DHT22;59686;51.716;7.016;2023-04-03T04:11:21;10.60;70.40
71837;DHT22;59686;51.716;7.016;2023-04-03T04:13:47;10.60;70.50
71837;DHT22;59686;51.716;7.016;2023-04-03T04:16:13;10.60;70.50
71837;DHT22;59686;51.716;7.016;2023-04-03T04:18:39;10.60;70.20
71837;DHT22;59686;51.716;7.016;2023-04-03T04:21:04;10.60;70.30
71837;DHT22;59686;51.716;7.016;2023-04-03T04:23:30;10.60;70.40
71837;DHT22;59686;51.716;7.016;2023-04-03T04:25:57;10.60;70.20
71837;DHT22;59686;51.716;7.016;2023-04-03T04:28:22;10.70;70.30
71837;DHT22;59686;51.716;7.016;2023-04-03T04:30:48;10.60;70.40
71837;DHT22;59686;51.716;7.016;2023-04-03T04:33:13;10.60;70.40
71837;DHT22;59686;51.716;7.016;2023-04-03T04:35:42;10.60;70.30
71837;DHT22;59686;51.716;7.016;2023-04-03T04:38:08;10.60;70.30
71837;DHT22;59686;51.716;7.016;2023-04-03T04:40:34;10.60;70.30
71837;DHT22;59686;51.716;7.016;2023-04-03T04:43:00;10.50;70.10
71837;DHT22;59686;51.716;7.016;2023-04-03T04:45:26;10.50;70.30
71837;DHT22;59686;51.716;7.016;2023-04-03T04:47:54;10.50;70.30
71837;DHT22;59686;51.716;7.016;2023-04-03T04:50:22;10.50;70.40
71837;DHT22;59686;51.716;7.016;2023-04-03T04:52:47;10.50;70.20
71837;DHT22;59686;51.716;7.016;2023-04-03T04:55:13;10.40;70.10
71837;DHT22;59686;51.716;7.016;2023-04-03T04:57:39;10.40;70.10
71837;DHT22;59686;51.716;7.016;2023-04-03T05:00:05;10.40;70.10
71837;DHT22;59686;51.716;7.016;2023-04-03T05:02:31;10.40;70.10
71837;DHT22;59686;51.716;7.016;2023-04-03T05:04:57;10.50;70.20
71837;DHT22;59686;51.716;7.016;2023-04-03T05:07:23;10.40;70.00
71837;DHT22;59686;51.716;7.016;2023-04-03T05:09:49;10.40;70.10
71837;DHT22;59686;51.716;7.016;2023-04-03T05:12:16;10.40;70.20
71837;DHT22;59686;51.716;7.016;2023-04-03T05:14:42;10.40;70.20
71837;DHT22;59686;51.716;7.016;2023-04-03T05:17:08;10.40;70.10
71837;DHT22;59686;51.716;7.016;2023-04-03T05:19:33;10.40;70.20
71837;DHT22;59686;51.716;7.016;2023-04-03T05:21:59;10.30;70.10
71837;DHT22;59686;51.716;7.016;2023-04-03T05:24:31;10.30;70.30
71837;DHT22;59686;51.716;7.016;2023-04-03T05:26:56;10.30;70.20
71837;DHT22;59686;51.716;7.016;2023-04-03T05:29:22;10.40;70.10
71837;DHT22;59686;51.716;7.016;2023-04-03T05:31:49;10.30;70.10
71837;DHT22;59686;51.716;7.016;2023-04-03T05:34:15;10.30;70.20
71837;DHT22;59686;51.716;7.016;2023-04-03T05:36:41;10.30;70.20
71837;DHT22;59686;51.716;7.016;2023-04-03T05:39:07;10.30;70.10
71837;DHT22;59686;51.716;7.016;2023-04-03T05:41:33;10.30;70.10
71837;DHT22;59686;51.716;7.016;2023-04-03T05:43:59;10.30;70.00
71837;DHT22;59686;51.716;7.016;2023-04-03T05:46:25;10.30;70.00
71837;DHT22;59686;51.716;7.016;2023-04-03T05:48:51;10.20;69.90
71837;DHT22;59686;51.716;7.016;2023-04-03T05:51:25;10.20;69.80
71837;DHT22;59686;51.716;7.016;2023-04-03T05:53:59;10.30;69.70
71837;DHT22;59686;51.716;7.016;2023-04-03T05:56:28;10.20;69.80
71837;DHT22;59686;51.716;7.016;2023-04-03T05:58:53;10.20;69.70
71837;DHT22;59686;51.716;7.016;2023-04-03T06:01:23;10.20;69.50
71837;DHT22;59686;51.716;7.016;2023-04-03T06:03:49;10.20;69.80
71837;DHT22;59686;51.716;7.016;2023-04-03T06:06:14;10.10;69.70
71837;DHT22;59686;51.716;7.016;2023-04-03T06:08:40;10.20;69.90
71837;DHT22;59686;51.716;7.016;2023-04-03T06:11:06;10.20;69.80
71837;DHT22;59686;51.716;7.016;2023-04-03T06:13:34;10.20;69.60
71837;DHT22;59686;51.716;7.016;2023-04-03T06:16:00;10.10;69.70
71837;DHT22;59686;51.716;7.016;2023-04-03T06:18:26;10.10;69.60
71837;DHT22;59686;51.716;7.016;2023-04-03T06:20:52;10.20;69.70
71837;DHT22;59686;51.716;7.016;2023-04-03T06:23:17;10.10;69.60
71837;DHT22;59686;51.716;7.016;2023-04-03T06:25:43;10.10;69.50
71837;DHT22;59686;51.716;7.016;2023-04-03T06:28:10;10.10;69.50
71837;DHT22;59686;51.716;7.016;2023-04-03T06:30:36;10.10;69.30
71837;DHT22;59686;51.716;7.016;2023-04-03T06:33:03;10.00;69.10
71837;DHT22;59686;51.716;7.016;2023-04-03T06:35:28;10.10;69.30
71837;DHT22;59686;51.716;7.016;2023-04-03T06:37:56;10.10;69.20
71837;DHT22;59686;51.716;7.016;2023-04-03T06:40:24;10.10;69.20
71837;DHT22;59686;51.716;7.016;2023-04-03T06:42:50;10.00;68.80
71837;DHT22;59686;51.716;7.016;2023-04-03T06:45:16;10.10;68.80
71837;DHT22;59686;51.716;7.016;2023-04-03T06:47:42;10.00;68.60
71837;DHT22;59686;51.716;7.016;2023-04-03T06:50:10;10.00;68.60
71837;DHT22;59686;51.716;7.016;2023-04-03T06:52:37;10.00;68.60
71837;DHT22;59686;51.716;7.016;2023-04-03T06:55:03;10.00;68.60
71837;DHT22;59686;51.716;7.016;2023-04-03T06:57:29;10.00;68.70
71837;DHT22;59686;51.716;7.016;2023-04-03T06:59:55;10.00;68.70
71837;DHT22;59686;51.716;7.016;2023-04-03T07:02:20;10.00;68.80
71837;DHT22;59686;51.716;7.016;2023-04-03T07:04:47;10.00;68.80
71837;DHT22;59686;51.716;7.016;2023-04-03T07:07:12;10.00;68.70
71837;DHT22;59686;51.716;7.016;2023-04-03T07:09:38;10.00;68.60
71837;DHT22;59686;51.716;7.016;2023-04-03T07:12:04;10.00;68.60
71837;DHT22;59686;51.716;7.016;2023-04-03T07:14:29;10.00;68.60
71837;DHT22;59686;51.716;7.016;2023-04-03T07:16:55;10.00;68.80
71837;DHT22;59686;51.716;7.016;2023-04-03T07:19:21;10.00;68.80
71837;DHT22;59686;51.716;7.016;2023-04-03T07:21:55;10.00;68.80
71837;DHT22;59686;51.716;7.016;2023-04-03T07:24:21;10.00;68.80
71837;DHT22;59686;51.716;7.016;2023-04-03T07:26:51;9.90;68.50
71837;DHT22;59686;51.716;7.016;2023-04-03T07:29:17;9.90;68.60
71837;DHT22;59686;51.716;7.016;2023-04-03T07:31:43;10.00;68.70
71837;DHT22;59686;51.716;7.016;2023-04-03T07:34:10;9.90;68.60
71837;DHT22;59686;51.716;7.016;2023-04-03T07:36:36;10.10;68.70
71837;DHT22;59686;51.716;7.016;2023-04-03T07:39:03;9.90;68.60
71837;DHT22;59686;51.716;7.016;2023-04-03T07:41:28;9.90;68.70
71837;DHT22;59686;51.716;7.016;2023-04-03T07:43:56;9.90;68.70
71837;DHT22;59686;51.716;7.016;2023-04-03T07:46:22;9.90;68.60
71837;DHT22;59686;51.716;7.016;2023-04-03T07:48:48;10.10;68.70
71837;DHT22;59686;51.716;7.016;2023-04-03T07:51:14;9.90;68.50
71837;DHT22;59686;51.716;7.016;2023-04-03T07:53:40;9.90;68.60
71837;DHT22;59686;51.716;7.016;2023-04-03T07:56:06;10.00;68.70
71837;DHT22;59686;51.716;7.016;2023-04-03T07:58:33;9.80;68.40
71837;DHT22;59686;51.716;7.016;2023-04-03T08:01:00;9.90;68.50
71837;DHT22;59686;51.716;7.016;2023-04-03T08:03:26;9.90;68.50
71837;DHT22;59686;51.716;7.016;2023-04-03T08:05:51;9.90;68.20
71837;DHT22;59686;51.716;7.016;2023-04-03T08:08:21;9.90;68.20
71837;DHT22;59686;51.716;7.016;2023-04-03T08:11:06;9.90;68.20
71837;DHT22;59686;51.716;7.016;2023-04-03T08:13:34;9.90;68.10
71837;DHT22;59686;51.716;7.016;2023-04-03T08:16:12;9.90;68.20
71837;DHT22;59686;51.716;7.016;2023-04-03T08:18:38;9.90;68.10
71837;DHT22;59686;51.716;7.016;2023-04-03T08:21:06;9.80;68.00
71837;DHT22;59686;51.716;7.016;2023-04-03T08:23:32;9.90;68.10
71837;DHT22;59686;51.716;7.016;2023-04-03T08:26:09;9.90;68.00
71837;DHT22;59686;51.716;7.016;2023-04-03T08:28:35;9.90;67.80
71837;DHT22;59686;51.716;7.016;2023-04-03T08:31:10;10.00;67.70
71837;DHT22;59686;51.716;7.016;2023-04-03T08:33:38;9.90;67.50
71837;DHT22;59686;51.716;7.016;2023-04-03T08:36:05;9.80;67.40
71837;DHT22;59686;51.716;7.016;2023-04-03T08:38:32;9.90;67.30
71837;DHT22;59686;51.716;7.016;2023-04-03T08:44:25;9.80;67.00
71837;DHT22;59686;51.716;7.016;2023-04-03T08:49:53;9.90;67.10
71837;DHT22;59686;51.716;7.016;2023-04-03T08:52:29;9.90;67.00
71837;DHT22;59686;51.716;7.016;2023-04-03T08:55:00;9.90;67.50
71837;DHT22;59686;51.716;7.016;2023-04-03T08:57:35;9.90;66.40
71837;DHT22;59686;51.716;7.016;2023-04-03T09:00:17;9.80;65.80
71837;DHT22;59686;51.716;7.016;2023-04-03T09:02:44;9.80;65.40
71837;DHT22;59686;51.716;7.016;2023-04-03T09:07:49;9.80;64.90
71837;DHT22;59686;51.716;7.016;2023-04-03T09:10:24;9.80;65.50
71837;DHT22;59686;51.716;7.016;2023-04-03T09:12:57;9.80;65.00
71837;DHT22;59686;51.716;7.016;2023-04-03T09:15:25;9.80;65.10
71837;DHT22;59686;51.716;7.016;2023-04-03T09:22:58;9.80;64.90
71837;DHT22;59686;51.716;7.016;2023-04-03T09:25:27;9.90;64.60
71837;DHT22;59686;51.716;7.016;2023-04-03T09:27:59;9.80;64.30
71837;DHT22;59686;51.716;7.016;2023-04-03T09:30:26;9.70;64.00
71837;DHT22;59686;51.716;7.016;2023-04-03T09:32:54;9.80;63.80
71837;DHT22;59686;51.716;7.016;2023-04-03T09:35:29;9.80;63.40
71837;DHT22;59686;51.716;7.016;2023-04-03T09:40:47;9.70;62.60
71837;DHT22;59686;51.716;7.016;2023-04-03T09:43:24;9.70;62.60
71837;DHT22;59686;51.716;7.016;2023-04-03T09:45:50;9.80;62.90
71837;DHT22;59686;51.716;7.016;2023-04-03T09:48:25;9.90;62.50
71837;DHT22;59686;51.716;7.016;2023-04-03T09:50:56;9.70;61.80
71837;DHT22;59686;51.716;7.016;2023-04-03T09:53:40;9.70;61.90
71837;DHT22;59686;51.716;7.016;2023-04-03T09:58:45;9.70;61.70
71837;DHT22;59686;51.716;7.016;2023-04-03T10:06:34;9.70;61.40
71837;DHT22;59686;51.716;7.016;2023-04-03T10:09:26;9.70;61.60
71837;DHT22;59686;51.716;7.016;2023-04-03T10:12:04;9.80;61.70
71837;DHT22;59686;51.716;7.016;2023-04-03T10:14:31;9.70;62.40
71837;DHT22;59686;51.716;7.016;2023-04-03T10:22:17;9.80;61.70
71837;DHT22;59686;51.716;7.016;2023-04-03T10:36:28;9.80;61.90
71837;DHT22;59686;51.716;7.016;2023-04-03T10:44:53;9.80;60.50
71837;DHT22;59686;51.716;7.016;2023-04-03T10:49:56;9.80;61.00
71837;DHT22;59686;51.716;7.016;2023-04-03T10:57:55;9.70;60.90
71837;DHT22;59686;51.716;7.016;2023-04-03T11:00:35;9.80;60.70
71837;DHT22;59686;51.716;7.016;2023-04-03T11:03:13;9.80;61.20
71837;DHT22;59686;51.716;7.016;2023-04-03T11:05:49;9.90;61.20
71837;DHT22;59686;51.716;7.016;2023-04-03T11:08:38;9.90;61.20
71837;DHT22;59686;51.716;7.016;2023-04-03T11:11:21;9.90;61.00
71837;DHT22;59686;51.716;7.016;2023-04-03T11:14:04;9.80;61.30
71837;DHT22;59686;51.716;7.016;2023-04-03T11:16:34;9.90;61.60
71837;DHT22;59686;51.716;7.016;2023-04-03T11:19:11;9.90;61.70
71837;DHT22;59686;51.716;7.016;2023-04-03T11:21:57;9.80;60.80
71837;DHT22;59686;51.716;7.016;2023-04-03T11:24:29;9.90;61.00
71837;DHT22;59686;51.716;7.016;2023-04-03T11:26:59;9.90;61.30
71837;DHT22;59686;51.716;7.016;2023-04-03T11:29:32;9.90;61.40
71837;DHT22;59686;51.716;7.016;2023-04-03T11:32:29;10.00;61.30
71837;DHT22;59686;51.716;7.016;2023-04-03T11:34:59;10.00;61.40
71837;DHT22;59686;51.716;7.016;2023-04-03T11:37:31;9.90;61.90
71837;DHT22;59686;51.716;7.016;2023-04-03T11:40:24;10.00;60.70
71837;DHT22;59686;51.716;7.016;2023-04-03T11:45:33;10.00;61.30
71837;DHT22;59686;51.716;7.016;2023-04-03T11:48:04;10.00;61.20
71837;DHT22;59686;51.716;7.016;2023-04-03T11:58:17;10.10;62.50
71837;DHT22;59686;51.716;7.016;2023-04-03T12:00:47;10.10;61.50
71837;DHT22;59686;51.716;7.016;2023-04-03T12:08:30;10.10;61.00
71837;DHT22;59686;51.716;7.016;2023-04-03T12:16:44;10.10;60.80
71837;DHT22;59686;51.716;7.016;2023-04-03T12:22:04;10.10;61.00
71837;DHT22;59686;51.716;7.016;2023-04-03T12:24:36;10.10;60.70
71837;DHT22;59686;51.716;7.016;2023-04-03T12:29:49;10.10;59.80
71837;DHT22;59686;51.716;7.016;2023-04-03T12:35:14;10.20;60.00
71837;DHT22;59686;51.716;7.016;2023-04-03T12:48:17;10.30;60.60
71837;DHT22;59686;51.716;7.016;2023-04-03T12:50:47;10.30;60.70
71837;DHT22;59686;51.716;7.016;2023-04-03T12:53:21;10.30;61.20
71837;DHT22;59686;51.716;7.016;2023-04-03T12:55:52;10.30;61.20
71837;DHT22;59686;51.716;7.016;2023-04-03T12:58:24;10.30;61.50
71837;DHT22;59686;51.716;7.016;2023-04-03T13:01:02;10.40;60.90
71837;DHT22;59686;51.716;7.016;2023-04-03T13:03:29;10.40;60.80
71837;DHT22;59686;51.716;7.016;2023-04-03T13:06:00;10.50;61.00
71837;DHT22;59686;51.716;7.016;2023-04-03T13:08:27;10.40;60.80
71837;DHT22;59686;51.716;7.016;2023-04-03T13:11:01;10.50;60.60
71837;DHT22;59686;51.716;7.016;2023-04-03T13:13:27;10.40;59.90
71837;DHT22;59686;51.716;7.016;2023-04-03T13:15:54;10.50;60.40
71837;DHT22;59686;51.716;7.016;2023-04-03T13:18:37;10.50;60.00
71837;DHT22;59686;51.716;7.016;2023-04-03T13:21:12;10.50;59.70
71837;DHT22;59686;51.716;7.016;2023-04-03T13:23:43;10.50;60.00
71837;DHT22;59686;51.716;7.016;2023-04-03T13:26:10;10.60;60.00
71837;DHT22;59686;51.716;7.016;2023-04-03T13:28:37;10.60;59.80
71837;DHT22;59686;51.716;7.016;2023-04-03T13:33:58;10.60;59.50
71837;DHT22;59686;51.716;7.016;2023-04-03T13:36:40;10.60;59.80
71837;DHT22;59686;51.716;7.016;2023-04-03T13:41:59;10.70;59.90
71837;DHT22;59686;51.716;7.016;2023-04-03T13:44:38;10.70;60.20
71837;DHT22;59686;51.716;7.016;2023-04-03T13:47:15;10.80;60.40
71837;DHT22;59686;51.716;7.016;2023-04-03T13:49:43;10.80;59.80
71837;DHT22;59686;51.716;7.016;2023-04-03T13:54:59;10.80;59.70
71837;DHT22;59686;51.716;7.016;2023-04-03T13:57:25;10.90;60.10
71837;DHT22;59686;51.716;7.016;2023-04-03T13:59:51;10.80;60.00
71837;DHT22;59686;51.716;7.016;2023-04-03T14:02:32;10.90;59.50
71837;DHT22;59686;51.716;7.016;2023-04-03T14:05:00;10.90;59.90
71837;DHT22;59686;51.716;7.016;2023-04-03T14:07:28;11.00;59.60
71837;DHT22;59686;51.716;7.016;2023-04-03T14:09:55;10.90;59.50
71837;DHT22;59686;51.716;7.016;2023-04-03T14:12:36;10.90;59.90
71837;DHT22;59686;51.716;7.016;2023-04-03T14:15:16;11.10;59.60
71837;DHT22;59686;51.716;7.016;2023-04-03T14:17:52;11.00;59.80
71837;DHT22;59686;51.716;7.016;2023-04-03T14:20:21;11.00;59.50
71837;DHT22;59686;51.716;7.016;2023-04-03T14:22:47;11.10;59.70
71837;DHT22;59686;51.716;7.016;2023-04-03T14:25:15;11.10;59.40
71837;DHT22;59686;51.716;7.016;2023-04-03T14:27:58;11.00;59.10
71837;DHT22;59686;51.716;7.016;2023-04-03T14:30:34;11.10;59.30
71837;DHT22;59686;51.716;7.016;2023-04-03T14:33:02;11.10;58.90
71837;DHT22;59686;51.716;7.016;2023-04-03T14:35:29;11.10;58.80
71837;DHT22;59686;51.716;7.016;2023-04-03T14:37:55;11.20;59.10
71837;DHT22;59686;51.716;7.016;2023-04-03T14:40:25;11.20;58.90
71837;DHT22;59686;51.716;7.016;2023-04-03T14:42:51;11.30;58.90
71837;DHT22;59686;51.716;7.016;2023-04-03T14:45:21;11.30;58.60
71837;DHT22;59686;51.716;7.016;2023-04-03T14:47:50;11.30;59.40
71837;DHT22;59686;51.716;7.016;2023-04-03T14:50:20;11.30;59.30
71837;DHT22;59686;51.716;7.016;2023-04-03T14:52:47;11.30;58.30
71837;DHT22;59686;51.716;7.016;2023-04-03T14:55:17;11.40;58.20
71837;DHT22;59686;51.716;7.016;2023-04-03T14:57:43;11.40;57.90
71837;DHT22;59686;51.716;7.016;2023-04-03T15:00:16;11.40;58.30
71837;DHT22;59686;51.716;7.016;2023-04-03T15:02:42;11.40;58.10
71837;DHT22;59686;51.716;7.016;2023-04-03T15:05:10;11.40;57.60
71837;DHT22;59686;51.716;7.016;2023-04-03T15:07:47;11.50;57.80
71837;DHT22;59686;51.716;7.016;2023-04-03T15:10:25;11.50;58.60
71837;DHT22;59686;51.716;7.016;2023-04-03T15:12:52;11.60;58.10
71837;DHT22;59686;51.716;7.016;2023-04-03T15:15:19;11.60;57.80
71837;DHT22;59686;51.716;7.016;2023-04-03T15:17:46;11.60;57.60
71837;DHT22;59686;51.716;7.016;2023-04-03T15:20:19;11.60;57.40
71837;DHT22;59686;51.716;7.016;2023-04-03T15:22:44;11.70;57.20
71837;DHT22;59686;51.716;7.016;2023-04-03T15:25:10;11.60;57.10
71837;DHT22;59686;51.716;7.016;2023-04-03T15:27:37;11.70;56.70
71837;DHT22;59686;51.716;7.016;2023-04-03T15:30:04;11.70;56.80
71837;DHT22;59686;51.716;7.016;2023-04-03T15:32:30;11.70;57.00
71837;DHT22;59686;51.716;7.016;2023-04-03T15:34:56;11.80;57.10
71837;DHT22;59686;51.716;7.016;2023-04-03T15:37:22;11.90;57.50
71837;DHT22;59686;51.716;7.016;2023-04-03T15:39:48;11.80;57.30
71837;DHT22;59686;51.716;7.016;2023-04-03T15:42:13;11.80;57.20
71837;DHT22;59686;51.716;7.016;2023-04-03T15:44:39;11.80;56.80
71837;DHT22;59686;51.716;7.016;2023-04-03T15:47:05;11.90;56.90
71837;DHT22;59686;51.716;7.016;2023-04-03T15:49:33;11.90;56.80
71837;DHT22;59686;51.716;7.016;2023-04-03T15:51:59;12.00;56.70
71837;DHT22;59686;51.716;7.016;2023-04-03T15:54:25;12.00;56.80
71837;DHT22;59686;51.716;7.016;2023-04-03T15:56:58;12.10;56.90
71837;DHT22;59686;51.716;7.016;2023-04-03T15:59:24;12.10;56.90
71837;DHT22;59686;51.716;7.016;2023-04-03T16:01:51;12.10;56.60
71837;DHT22;59686;51.716;7.016;2023-04-03T16:04:29;12.20;56.40
71837;DHT22;59686;51.716;7.016;2023-04-03T16:06:55;12.30;56.40
71837;DHT22;59686;51.716;7.016;2023-04-03T16:09:21;12.40;56.20
71837;DHT22;59686;51.716;7.016;2023-04-03T16:11:49;12.30;56.00
71837;DHT22;59686;51.716;7.016;2023-04-03T16:14:14;12.50;56.10
71837;DHT22;59686;51.716;7.016;2023-04-03T16:16:40;12.50;56.00
71837;DHT22;59686;51.716;7.016;2023-04-03T16:19:06;12.60;55.90
71837;DHT22;59686;51.716;7.016;2023-04-03T16:21:32;12.60;55.90
71837;DHT22;59686;51.716;7.016;2023-04-03T16:24:01;12.60;55.90
71837;DHT22;59686;51.716;7.016;2023-04-03T16:26:27;12.70;55.90
71837;DHT22;59686;51.716;7.016;2023-04-03T16:28:53;12.80;55.90
71837;DHT22;59686;51.716;7.016;2023-04-03T16:31:20;12.90;56.10
71837;DHT22;59686;51.716;7.016;2023-04-03T16:33:46;13.00;56.00
71837;DHT22;59686;51.716;7.016;2023-04-03T16:36:12;13.10;55.90
71837;DHT22;59686;51.716;7.016;2023-04-03T16:38:37;13.00;55.80
71837;DHT22;59686;51.716;7.016;2023-04-03T16:41:03;13.00;55.40
71837;DHT22;59686;51.716;7.016;2023-04-03T16:43:33;13.10;56.00
71837;DHT22;59686;51.716;7.016;2023-04-03T16:45:59;13.20;55.40
71837;DHT22;59686;51.716;7.016;2023-04-03T16:48:28;13.20;55.70
71837;DHT22;59686;51.716;7.016;2023-04-03T16:50:54;13.20;56.10
71837;DHT22;59686;51.716;7.016;2023-04-03T16:53:21;13.30;56.50
71837;DHT22;59686;51.716;7.016;2023-04-03T16:55:47;13.30;57.10
71837;DHT22;59686;51.716;7.016;2023-04-03T16:58:13;13.40;56.60
71837;DHT22;59686;51.716;7.016;2023-04-03T17:00:40;13.30;56.10
71837;DHT22;59686;51.716;7.016;2023-04-03T17:03:06;13.40;55.90
71837;DHT22;59686;51.716;7.016;2023-04-03T17:05:31;13.40;55.40
71837;DHT22;59686;51.716;7.016;2023-04-03T17:07:57;13.40;55.10
71837;DHT22;59686;51.716;7.016;2023-04-03T17:10:23;13.40;54.60
71837;DHT22;59686;51.716;7.016;2023-04-03T17:12:49;13.30;54.50
71837;DHT22;59686;51.716;7.016;2023-04-03T17:15:15;13.20;54.50
71837;DHT22;59686;51.716;7.016;2023-04-03T17:17:41;13.10;54.60
71837;DHT22;59686;51.716;7.016;2023-04-03T17:20:18;13.10;55.00
71837;DHT22;59686;51.716;7.016;2023-04-03T17:22:44;13.00;55.30
71837;DHT22;59686;51.716;7.016;2023-04-03T17:25:10;13.00;55.70
71837;DHT22;59686;51.716;7.016;2023-04-03T17:27:36;12.90;55.60